Time;durP1;ratioP1;P1;durP2;ratioP2;P2;SDS_P1;SDS_P2;PMS_P1;PMS_P2;Temp;Humidity;BMP_temperature;BMP_pressure;BME280_temperature;BME280_humidity;BME280_pressure;Samples;Min_cycle;Max_cycle;Signal;HPM_P1;HPM_P2
2023/03/02 00:00:36;;;;;;;;;;;2.70;99.90;;;;;;4863126;29;19976;-70
2023/03/02 00:03:03;;;;;;;;;;;2.70;99.90;;;;;;4832531;29;20296;-71
2023/03/02 00:05:29;;;;;;;;;;;2.70;99.90;;;;;;4879850;29;19953;-71
2023/03/02 00:07:56;;;;;;;;;;;2.70;99.90;;;;;;4847578;29;20381;-70
2023/03/02 00:10:22;;;;;;;;;;;2.70;99.90;;;;;;4847474;29;20364;-70
2023/03/02 00:12:48;;;;;;;;;;;2.70;99.90;;;;;;4863144;29;19928;-70
2023/03/02 00:15:13;;;;;;;;;;;2.60;99.90;;;;;;4847554;29;19940;-70
2023/03/02 00:17:39;;;;;;;;;;;2.60;99.90;;;;;;4878247;29;19994;-70
2023/03/02 00:20:10;;;;;;;;;;;2.60;99.90;;;;;;4862477;29;19928;-70
2023/03/02 00:22:40;;;;;;;;;;;2.50;99.90;;;;;;4848402;29;20371;-70
2023/03/02 00:25:06;;;;;;;;;;;2.60;99.90;;;;;;4862421;29;19928;-70
2023/03/02 00:27:32;;;;;;;;;;;2.60;99.90;;;;;;4879229;29;19999;-71
2023/03/02 00:29:58;;;;;;;;;;;2.60;99.90;;;;;;4862953;29;19927;-70
2023/03/02 00:32:23;;;;;;;;;;;2.60;99.90;;;;;;4862504;29;19934;-70
2023/03/02 00:34:49;;;;;;;;;;;2.60;99.90;;;;;;4862284;29;19931;-71
2023/03/02 00:37:15;;;;;;;;;;;2.60;99.90;;;;;;4846779;29;20420;-70
2023/03/02 00:39:40;;;;;;;;;;;2.60;99.90;;;;;;4862494;29;20034;-70
2023/03/02 00:42:06;;;;;;;;;;;2.50;99.90;;;;;;4878740;29;19928;-73
2023/03/02 00:44:31;;;;;;;;;;;2.50;99.90;;;;;;4879365;29;19927;-70
2023/03/02 00:46:57;;;;;;;;;;;2.60;99.90;;;;;;4862518;29;19928;-70
2023/03/02 00:49:23;;;;;;;;;;;2.40;99.90;;;;;;4878224;29;19927;-71
2023/03/02 00:51:48;;;;;;;;;;;2.40;99.90;;;;;;4862400;29;20007;-70
2023/03/02 00:54:14;;;;;;;;;;;2.40;99.90;;;;;;4861924;29;19928;-71
2023/03/02 00:56:39;;;;;;;;;;;2.40;99.90;;;;;;4878545;29;20340;-70
2023/03/02 00:59:09;;;;;;;;;;;2.30;99.90;;;;;;4861668;29;19928;-70
2023/03/02 01:01:36;;;;;;;;;;;2.30;99.90;;;;;;4862273;29;19935;-69
2023/03/02 01:04:02;;;;;;;;;;;2.30;99.90;;;;;;4862047;29;19932;-70
2023/03/02 01:06:27;;;;;;;;;;;2.20;99.90;;;;;;4861508;29;20257;-69
2023/03/02 01:08:53;;;;;;;;;;;2.20;99.90;;;;;;4878394;29;19928;-70
2023/03/02 01:11:20;;;;;;;;;;;2.20;99.90;;;;;;4861534;29;20027;-70
2023/03/02 01:13:45;;;;;;;;;;;2.10;99.90;;;;;;4862019;29;19934;-70
2023/03/02 01:16:11;;;;;;;;;;;2.20;99.90;;;;;;4878221;29;19928;-71
2023/03/02 01:18:37;;;;;;;;;;;2.30;99.90;;;;;;4862065;29;19971;-70
2023/03/02 01:21:08;;;;;;;;;;;2.20;99.90;;;;;;4861919;29;19951;-71
2023/03/02 01:23:33;;;;;;;;;;;2.20;99.90;;;;;;4845396;29;19928;-70
2023/03/02 01:25:59;;;;;;;;;;;2.20;99.90;;;;;;4861942;29;20002;-71
2023/03/02 01:28:25;;;;;;;;;;;2.20;99.90;;;;;;4861583;29;19951;-70
2023/03/02 01:30:50;;;;;;;;;;;2.10;99.90;;;;;;4846461;29;19934;-70
2023/03/02 01:33:16;;;;;;;;;;;2.70;99.90;;;;;;4861521;29;19928;-70
2023/03/02 01:35:44;;;;;;;;;;;2.20;99.90;;;;;;4861475;29;19928;-70
2023/03/02 01:38:09;;;;;;;;;;;2.20;99.90;;;;;;4861846;29;19927;-70
2023/03/02 01:40:35;;;;;;;;;;;2.20;99.90;;;;;;4877453;29;19935;-70
2023/03/02 01:43:01;;;;;;;;;;;2.20;99.90;;;;;;4861682;29;19934;-69
2023/03/02 01:45:39;;;;;;;;;;;2.20;99.90;;;;;;4845984;29;19928;-69
2023/03/02 01:48:04;;;;;;;;;;;2.20;99.90;;;;;;4878503;29;19927;-69
2023/03/02 01:50:30;;;;;;;;;;;2.20;99.90;;;;;;4861150;29;20031;-70
2023/03/02 01:52:56;;;;;;;;;;;2.20;99.90;;;;;;4846342;29;20026;-70
2023/03/02 01:55:23;;;;;;;;;;;2.20;99.90;;;;;;4861391;29;19979;-70
2023/03/02 01:57:50;;;;;;;;;;;2.10;99.90;;;;;;4861665;29;19931;-70
2023/03/02 02:00:22;;;;;;;;;;;2.10;99.90;;;;;;4877595;29;20372;-73
2023/03/02 02:02:48;;;;;;;;;;;2.10;99.90;;;;;;4861559;29;19932;-70
2023/03/02 02:05:16;;;;;;;;;;;2.00;99.90;;;;;;4878172;29;19928;-70
2023/03/02 02:07:41;;;;;;;;;;;2.00;99.90;;;;;;4862938;29;19928;-69
2023/03/02 02:10:07;;;;;;;;;;;2.00;99.90;;;;;;4849769;29;19979;-70
2023/03/02 02:12:33;;;;;;;;;;;2.10;99.90;;;;;;4848916;29;19935;-70
2023/03/02 02:15:00;;;;;;;;;;;2.80;99.90;;;;;;4864892;29;19932;-70
2023/03/02 02:17:27;;;;;;;;;;;2.30;99.90;;;;;;4881298;29;20008;-70
2023/03/02 02:20:11;;;;;;;;;;;2.10;99.90;;;;;;4881444;29;19932;-69
2023/03/02 02:22:37;;;;;;;;;;;2.10;99.90;;;;;;4881159;29;19978;-69
2023/03/02 02:25:05;;;;;;;;;;;2.00;99.90;;;;;;4864895;29;20022;-70
2023/03/02 02:27:32;;;;;;;;;;;2.00;99.90;;;;;;4880959;29;19928;-70
2023/03/02 02:29:59;;;;;;;;;;;2.00;99.90;;;;;;4879777;29;19928;-70
2023/03/02 02:32:26;;;;;;;;;;;2.00;99.90;;;;;;4864489;29;20391;-70
2023/03/02 02:35:04;;;;;;;;;;;2.00;99.90;;;;;;4881413;29;19927;-69
2023/03/02 02:37:32;;;;;;;;;;;2.00;99.90;;;;;;4864270;29;19928;-70
2023/03/02 02:39:58;;;;;;;;;;;1.90;99.90;;;;;;4881319;29;19935;-70
2023/03/02 02:42:27;;;;;;;;;;;2.00;99.90;;;;;;4864079;29;19928;-70
2023/03/02 02:44:57;;;;;;;;;;;2.10;99.90;;;;;;4864603;29;19928;-70
2023/03/02 02:47:23;;;;;;;;;;;1.90;99.90;;;;;;4848915;29;19932;-73
2023/03/02 02:49:51;;;;;;;;;;;1.90;99.90;;;;;;4880962;29;19979;-70
2023/03/02 02:52:17;;;;;;;;;;;1.90;99.90;;;;;;4864632;29;19972;-70
2023/03/02 02:54:45;;;;;;;;;;;1.90;99.90;;;;;;4864100;29;20332;-70
2023/03/02 02:57:11;;;;;;;;;;;1.90;99.90;;;;;;4864495;29;19927;-70
2023/03/02 02:59:40;;;;;;;;;;;1.90;99.90;;;;;;4880556;29;19935;-71
2023/03/02 03:02:05;;;;;;;;;;;1.90;99.90;;;;;;4864023;29;20415;-70
2023/03/02 03:04:31;;;;;;;;;;;1.90;99.90;;;;;;4879070;29;20022;-70
2023/03/02 03:06:58;;;;;;;;;;;1.90;99.90;;;;;;4880760;29;19940;-70
2023/03/02 03:09:24;;;;;;;;;;;2.00;99.90;;;;;;4863964;29;19971;-70
2023/03/02 03:11:54;;;;;;;;;;;1.90;99.90;;;;;;4863711;29;19928;-69
2023/03/02 03:14:28;;;;;;;;;;;1.90;99.90;;;;;;4863626;29;20384;-70
2023/03/02 03:16:53;;;;;;;;;;;1.90;99.90;;;;;;4848491;29;19935;-69
2023/03/02 03:19:23;;;;;;;;;;;1.90;99.90;;;;;;4863664;29;19927;-69
2023/03/02 03:21:50;;;;;;;;;;;1.90;99.90;;;;;;4880038;29;20312;-69
2023/03/02 03:24:16;;;;;;;;;;;1.90;99.90;;;;;;4863776;29;19981;-69
2023/03/02 03:26:42;;;;;;;;;;;1.90;99.90;;;;;;4863665;29;19928;-69
2023/03/02 03:29:08;;;;;;;;;;;2.00;99.90;;;;;;4863907;29;19928;-69
2023/03/02 03:31:34;;;;;;;;;;;1.90;99.90;;;;;;4863667;29;19928;-69
2023/03/02 03:34:00;;;;;;;;;;;1.80;99.90;;;;;;4863784;29;20000;-69
2023/03/02 03:36:27;;;;;;;;;;;1.80;99.90;;;;;;4863417;29;20391;-69
2023/03/02 03:38:52;;;;;;;;;;;1.90;99.90;;;;;;4847835;29;19935;-70
2023/03/02 03:41:18;;;;;;;;;;;2.10;99.90;;;;;;4863398;29;19932;-70
2023/03/02 03:43:43;;;;;;;;;;;1.90;99.90;;;;;;4879824;29;20015;-69
2023/03/02 03:46:09;;;;;;;;;;;1.80;99.90;;;;;;4863519;29;20448;-69
2023/03/02 03:48:35;;;;;;;;;;;1.80;99.90;;;;;;4879484;29;19978;-69
2023/03/02 03:51:00;;;;;;;;;;;1.80;99.90;;;;;;4863247;29;19935;-69
2023/03/02 03:53:26;;;;;;;;;;;1.80;99.90;;;;;;4879531;29;19928;-69
2023/03/02 03:55:52;;;;;;;;;;;1.70;99.90;;;;;;4862890;29;19970;-69
2023/03/02 03:58:18;;;;;;;;;;;1.70;99.90;;;;;;4879299;29;20404;-69
2023/03/02 04:00:46;;;;;;;;;;;1.60;99.90;;;;;;4862517;29;19932;-69
2023/03/02 04:03:13;;;;;;;;;;;1.60;99.90;;;;;;4833214;29;20312;-69
2023/03/02 04:05:38;;;;;;;;;;;1.60;99.90;;;;;;4862965;29;19932;-69
2023/03/02 04:08:04;;;;;;;;;;;1.60;99.90;;;;;;4862618;29;19996;-70
2023/03/02 04:10:30;;;;;;;;;;;1.60;99.90;;;;;;4847657;29;19928;-69
2023/03/02 04:12:56;;;;;;;;;;;1.60;99.90;;;;;;4879251;29;19928;-69
2023/03/02 04:15:21;;;;;;;;;;;1.60;99.90;;;;;;4863115;29;19979;-69
2023/03/02 04:17:47;;;;;;;;;;;1.60;99.90;;;;;;4862776;29;19940;-69
2023/03/02 04:20:16;;;;;;;;;;;1.50;99.90;;;;;;4879317;29;19932;-69
2023/03/02 04:22:42;;;;;;;;;;;1.60;99.90;;;;;;4862375;29;19928;-69
2023/03/02 04:25:08;;;;;;;;;;;1.50;99.90;;;;;;4862946;29;19928;-69
2023/03/02 04:27:34;;;;;;;;;;;1.50;99.90;;;;;;4879438;29;19935;-69
2023/03/02 04:29:59;;;;;;;;;;;1.40;99.90;;;;;;4861612;29;19940;-72
2023/03/02 04:32:25;;;;;;;;;;;1.40;99.90;;;;;;4879527;29;19927;-69
2023/03/02 04:34:50;;;;;;;;;;;1.40;99.90;;;;;;4858684;29;19992;-69
2023/03/02 04:37:16;;;;;;;;;;;1.30;99.90;;;;;;4860555;29;19928;-69
2023/03/02 04:39:44;;;;;;;;;;;1.40;99.90;;;;;;4874304;29;19950;-69
2023/03/02 04:42:10;;;;;;;;;;;1.40;99.90;;;;;;4874535;29;20360;-69
2023/03/02 04:44:35;;;;;;;;;;;1.30;99.90;;;;;;4859650;29;19928;-69
2023/03/02 04:47:01;;;;;;;;;;;1.30;99.90;;;;;;4858847;29;19978;-70
2023/03/02 04:49:27;;;;;;;;;;;1.40;99.90;;;;;;4859417;29;19988;-70
2023/03/02 04:51:52;;;;;;;;;;;1.30;99.90;;;;;;4859937;29;19928;-70
2023/03/02 04:54:20;;;;;;;;;;;1.30;99.90;;;;;;4859071;29;20012;-69
2023/03/02 04:56:50;;;;;;;;;;;1.30;99.90;;;;;;4859017;29;19936;-70
2023/03/02 04:59:17;;;;;;;;;;;1.30;99.90;;;;;;4859185;29;20407;-69
2023/03/02 05:01:43;;;;;;;;;;;1.50;99.90;;;;;;4859065;29;19935;-74
2023/03/02 05:04:09;;;;;;;;;;;1.20;99.90;;;;;;4843676;29;19939;-69
2023/03/02 05:06:35;;;;;;;;;;;1.20;99.90;;;;;;4874486;29;19928;-70
2023/03/02 05:09:00;;;;;;;;;;;1.30;99.90;;;;;;4858768;29;20420;-69
2023/03/02 05:11:26;;;;;;;;;;;1.30;99.90;;;;;;4858941;29;20284;-69
2023/03/02 05:13:53;;;;;;;;;;;1.70;99.90;;;;;;4859685;29;19934;-69
2023/03/02 05:16:18;;;;;;;;;;;1.30;99.90;;;;;;4858892;29;19932;-69
2023/03/02 05:18:44;;;;;;;;;;;1.40;99.90;;;;;;4873882;29;20300;-73
2023/03/02 05:21:10;;;;;;;;;;;1.40;99.90;;;;;;4859859;29;19928;-69
2023/03/02 05:23:36;;;;;;;;;;;1.70;99.90;;;;;;4858843;29;20035;-69
2023/03/02 05:26:01;;;;;;;;;;;1.60;99.90;;;;;;4858428;29;19981;-70
2023/03/02 05:28:27;;;;;;;;;;;1.40;99.90;;;;;;4858855;29;19934;-70
2023/03/02 05:30:53;;;;;;;;;;;1.50;99.90;;;;;;4873807;29;19987;-69
2023/03/02 05:33:18;;;;;;;;;;;1.70;99.90;;;;;;4858833;29;20027;-69
2023/03/02 05:35:44;;;;;;;;;;;1.30;99.90;;;;;;4873463;29;19935;-70
2023/03/02 05:38:12;;;;;;;;;;;1.30;99.90;;;;;;4857452;29;22055;-69
2023/03/02 05:40:38;;;;;;;;;;;1.30;99.90;;;;;;4873415;29;19985;-70
2023/03/02 05:43:04;;;;;;;;;;;1.20;99.90;;;;;;4859091;29;19932;-69
2023/03/02 05:45:31;;;;;;;;;;;1.20;99.90;;;;;;4858630;29;19932;-70
2023/03/02 05:47:57;;;;;;;;;;;1.20;99.90;;;;;;4842985;29;19978;-70
2023/03/02 05:50:22;;;;;;;;;;;1.30;99.90;;;;;;4858713;29;20344;-70
2023/03/02 05:52:48;;;;;;;;;;;1.40;99.90;;;;;;4873637;29;19997;-73
2023/03/02 05:55:14;;;;;;;;;;;1.30;99.90;;;;;;4859420;29;19992;-69
2023/03/02 05:57:40;;;;;;;;;;;1.20;99.90;;;;;;4874032;29;20300;-69
2023/03/02 06:00:07;;;;;;;;;;;1.40;99.90;;;;;;4858209;29;19928;-70
2023/03/02 06:02:32;;;;;;;;;;;1.20;99.90;;;;;;4873615;29;19928;-69
2023/03/02 06:04:58;;;;;;;;;;;1.30;99.90;;;;;;4859310;29;20436;-69
2023/03/02 06:07:23;;;;;;;;;;;1.20;99.90;;;;;;4858514;29;19935;-69
2023/03/02 06:09:49;;;;;;;;;;;1.20;99.90;;;;;;4858401;29;20410;-69
2023/03/02 06:12:16;;;;;;;;;;;1.30;99.90;;;;;;4859434;29;19963;-69
2023/03/02 06:14:42;;;;;;;;;;;1.20;99.90;;;;;;4858428;29;19928;-70
2023/03/02 06:17:08;;;;;;;;;;;1.30;99.90;;;;;;4859050;29;19935;-68
2023/03/02 06:19:33;;;;;;;;;;;1.20;99.90;;;;;;4858253;29;20284;-69
2023/03/02 06:21:59;;;;;;;;;;;1.30;99.90;;;;;;4857754;29;19928;-68
2023/03/02 06:24:24;;;;;;;;;;;1.30;99.90;;;;;;4858313;29;20352;-69
2023/03/02 06:26:52;;;;;;;;;;;1.30;99.90;;;;;;4873452;29;19928;-68
2023/03/02 06:29:17;;;;;;;;;;;1.40;99.90;;;;;;4858981;29;19944;-69
2023/03/02 06:31:43;;;;;;;;;;;1.30;99.90;;;;;;4858196;29;19934;-69
2023/03/02 06:34:08;;;;;;;;;;;1.50;99.90;;;;;;4858275;29;19936;-69
2023/03/02 06:36:37;;;;;;;;;;;1.20;99.90;;;;;;4877697;29;19928;-69
2023/03/02 06:39:03;;;;;;;;;;;1.20;99.90;;;;;;4860293;29;19928;-69
2023/03/02 06:41:29;;;;;;;;;;;1.20;99.90;;;;;;4860714;29;19983;-69
2023/03/02 06:43:55;;;;;;;;;;;1.20;99.90;;;;;;4860682;29;19942;-72
2023/03/02 06:46:20;;;;;;;;;;;1.40;99.90;;;;;;4845652;29;20030;-70
2023/03/02 06:48:46;;;;;;;;;;;1.20;99.90;;;;;;4860747;29;20332;-69
2023/03/02 06:51:11;;;;;;;;;;;1.20;99.90;;;;;;4876895;29;19928;-69
2023/03/02 06:53:37;;;;;;;;;;;1.20;99.90;;;;;;4878028;29;19927;-70
2023/03/02 06:56:03;;;;;;;;;;;1.20;99.90;;;;;;4848839;29;19981;-70
2023/03/02 06:58:28;;;;;;;;;;;1.10;99.90;;;;;;4880926;29;19939;-69
2023/03/02 07:00:54;;;;;;;;;;;1.20;99.90;;;;;;4879362;29;19943;-69
2023/03/02 07:03:19;;;;;;;;;;;1.10;99.90;;;;;;4863899;29;20419;-69
2023/03/02 07:05:47;;;;;;;;;;;1.10;99.90;;;;;;4864322;29;19934;-69
2023/03/02 07:08:13;;;;;;;;;;;1.10;99.90;;;;;;4863616;29;20173;-69
2023/03/02 07:10:38;;;;;;;;;;;1.10;99.90;;;;;;4864214;29;20072;-69
2023/03/02 07:13:04;;;;;;;;;;;1.00;99.90;;;;;;4863999;29;19934;-69
2023/03/02 07:15:30;;;;;;;;;;;1.20;99.90;;;;;;4864090;29;19988;-69
2023/03/02 07:17:55;;;;;;;;;;;1.00;99.90;;;;;;4848656;29;19934;-69
2023/03/02 07:20:21;;;;;;;;;;;1.00;99.90;;;;;;4863138;29;20609;-70
2023/03/02 07:22:46;;;;;;;;;;;1.00;99.90;;;;;;4863520;29;19934;-69
2023/03/02 07:25:12;;;;;;;;;;;1.40;99.90;;;;;;4863238;29;19980;-69
2023/03/02 07:27:38;;;;;;;;;;;1.00;99.90;;;;;;4864049;29;20398;-69
2023/03/02 07:30:05;;;;;;;;;;;1.20;99.90;;;;;;4848171;29;19928;-70
2023/03/02 07:32:30;;;;;;;;;;;1.10;99.90;;;;;;4847839;29;20456;-69
2023/03/02 07:34:56;;;;;;;;;;;1.10;99.90;;;;;;4880133;29;19932;-69
2023/03/02 07:37:22;;;;;;;;;;;1.10;99.90;;;;;;4848162;29;19992;-68
2023/03/02 07:39:48;;;;;;;;;;;1.10;99.90;;;;;;4880139;29;19928;-70
2023/03/02 07:42:13;;;;;;;;;;;1.10;99.90;;;;;;4863161;29;20006;-71
2023/03/02 07:44:39;;;;;;;;;;;1.00;99.90;;;;;;4863410;29;19928;-70
2023/03/02 07:47:04;;;;;;;;;;;1.00;99.90;;;;;;4862947;29;20388;-73
2023/03/02 07:49:30;;;;;;;;;;;2.10;99.90;;;;;;4848103;29;19928;-69
2023/03/02 07:51:56;;;;;;;;;;;1.10;99.90;;;;;;4863195;29;19983;-69
2023/03/02 07:54:21;;;;;;;;;;;1.20;99.90;;;;;;4879669;29;19975;-70
2023/03/02 07:56:47;;;;;;;;;;;1.20;99.90;;;;;;4880124;29;19935;-70
2023/03/02 07:59:12;;;;;;;;;;;1.20;99.90;;;;;;4878429;29;20412;-69
2023/03/02 08:01:38;;;;;;;;;;;1.30;99.90;;;;;;4879795;29;19938;-68
2023/03/02 08:04:04;;;;;;;;;;;1.30;99.90;;;;;;4847531;29;19970;-69
2023/03/02 08:06:29;;;;;;;;;;;1.40;99.90;;;;;;4877809;29;19935;-68
2023/03/02 08:08:55;;;;;;;;;;;1.50;99.90;;;;;;4863353;29;19928;-69
2023/03/02 08:11:21;;;;;;;;;;;1.50;99.90;;;;;;4862768;29;19935;-69
2023/03/02 08:13:46;;;;;;;;;;;1.40;99.90;;;;;;4879422;29;19928;-69
2023/03/02 08:16:13;;;;;;;;;;;1.40;99.90;;;;;;4862853;29;20413;-69
2023/03/02 08:18:39;;;;;;;;;;;1.40;99.90;;;;;;4847486;29;19931;-70
2023/03/02 08:21:16;;;;;;;;;;;1.40;99.90;;;;;;4879571;29;19928;-69
2023/03/02 08:23:42;;;;;;;;;;;1.40;99.90;;;;;;4879397;29;19928;-68
2023/03/02 08:26:08;;;;;;;;;;;1.40;99.90;;;;;;4863064;29;20258;-71
2023/03/02 08:28:33;;;;;;;;;;;1.40;99.90;;;;;;4878899;29;20387;-71
2023/03/02 08:31:00;;;;;;;;;;;1.50;99.90;;;;;;4862235;29;20360;-70
2023/03/02 08:33:26;;;;;;;;;;;1.40;99.90;;;;;;4846923;29;20006;-69
2023/03/02 08:35:55;;;;;;;;;;;1.40;99.90;;;;;;4847307;29;19935;-69
2023/03/02 08:38:21;;;;;;;;;;;1.40;99.90;;;;;;4862307;29;19928;-69
2023/03/02 08:40:46;;;;;;;;;;;1.50;99.90;;;;;;4861911;29;20368;-69
2023/03/02 08:43:12;;;;;;;;;;;1.40;99.90;;;;;;4862182;29;19967;-74
2023/03/02 08:45:37;;;;;;;;;;;1.40;99.90;;;;;;4878901;29;19928;-70
2023/03/02 08:48:03;;;;;;;;;;;1.40;99.90;;;;;;4862300;29;20037;-70
2023/03/02 08:50:28;;;;;;;;;;;1.30;99.90;;;;;;4878670;29;19964;-70
2023/03/02 08:52:54;;;;;;;;;;;1.30;99.90;;;;;;4877892;29;20002;-69
2023/03/02 08:55:20;;;;;;;;;;;1.30;99.90;;;;;;4878536;29;19951;-69
2023/03/02 08:57:46;;;;;;;;;;;1.40;99.90;;;;;;4862567;29;19928;-71
2023/03/02 09:00:13;;;;;;;;;;;1.40;99.90;;;;;;4878961;29;19927;-70
2023/03/02 09:02:39;;;;;;;;;;;1.40;99.90;;;;;;4878669;29;19932;-71
2023/03/02 09:05:05;;;;;;;;;;;1.50;99.90;;;;;;4878917;29;19928;-70
2023/03/02 09:07:31;;;;;;;;;;;1.60;99.90;;;;;;4861944;29;19979;-70
2023/03/02 09:09:56;;;;;;;;;;;1.60;99.90;;;;;;4846565;29;19928;-69
2023/03/02 09:12:22;;;;;;;;;;;1.60;99.90;;;;;;4861592;29;19928;-69
2023/03/02 09:14:48;;;;;;;;;;;1.70;99.90;;;;;;4877672;29;19931;-75
2023/03/02 09:17:14;;;;;;;;;;;1.60;99.90;;;;;;4861783;29;20019;-70
2023/03/02 09:19:40;;;;;;;;;;;1.60;99.90;;;;;;4861291;29;20379;-69
2023/03/02 09:22:07;;;;;;;;;;;1.80;99.90;;;;;;4861686;29;19957;-73
2023/03/02 09:24:33;;;;;;;;;;;1.70;99.90;;;;;;4861434;29;20018;-69
2023/03/02 09:26:58;;;;;;;;;;;1.80;99.90;;;;;;4861817;29;20024;-69
2023/03/02 09:29:24;;;;;;;;;;;1.90;99.90;;;;;;4861157;29;19979;-71
2023/03/02 09:31:50;;;;;;;;;;;1.90;99.90;;;;;;4831255;29;19927;-72
2023/03/02 09:34:15;;;;;;;;;;;2.00;99.90;;;;;;4861671;29;20336;-70
2023/03/02 09:36:41;;;;;;;;;;;2.10;99.90;;;;;;4842568;29;19928;-71
2023/03/02 09:39:11;;;;;;;;;;;2.20;99.90;;;;;;4858765;29;19939;-70
2023/03/02 09:41:49;;;;;;;;;;;2.20;99.90;;;;;;4873658;29;19935;-70
2023/03/02 09:44:29;;;;;;;;;;;2.30;99.90;;;;;;4859829;29;19929;-69
2023/03/02 09:46:58;;;;;;;;;;;2.30;99.90;;;;;;4859623;29;19929;-69
2023/03/02 09:49:31;;;;;;;;;;;2.20;99.90;;;;;;4858188;29;19936;-69
2023/03/02 09:52:10;;;;;;;;;;;2.30;99.90;;;;;;4874074;29;19988;-70
2023/03/02 09:54:36;;;;;;;;;;;2.30;99.90;;;;;;4858850;29;19928;-70
2023/03/02 09:57:03;;;;;;;;;;;2.40;99.90;;;;;;4858206;29;19932;-70
2023/03/02 09:59:29;;;;;;;;;;;2.50;99.90;;;;;;4873249;29;19938;-70
2023/03/02 10:02:12;;;;;;;;;;;2.80;99.90;;;;;;4858396;29;20524;-70
2023/03/02 10:04:47;;;;;;;;;;;2.60;99.90;;;;;;4857868;29;19932;-69
2023/03/02 10:07:15;;;;;;;;;;;2.70;99.90;;;;;;4858132;29;19932;-70
2023/03/02 10:09:41;;;;;;;;;;;2.80;99.90;;;;;;4858234;29;19928;-69
2023/03/02 10:12:17;;;;;;;;;;;2.90;99.90;;;;;;4859379;29;19935;-69
2023/03/02 10:14:44;;;;;;;;;;;2.80;99.90;;;;;;4873474;29;20003;-69
2023/03/02 10:17:12;;;;;;;;;;;2.80;99.90;;;;;;4873942;29;20236;-69
2023/03/02 10:19:41;;;;;;;;;;;2.70;99.90;;;;;;4842557;29;19935;-69
2023/03/02 10:22:14;;;;;;;;;;;2.70;99.90;;;;;;4858389;29;20023;-69
2023/03/02 10:24:44;;;;;;;;;;;2.70;99.90;;;;;;4842335;29;19993;-69
2023/03/02 10:27:16;;;;;;;;;;;2.90;99.90;;;;;;4859627;29;19951;-69
2023/03/02 10:29:46;;;;;;;;;;;3.00;99.90;;;;;;4861155;29;19931;-69
2023/03/02 10:32:15;;;;;;;;;;;3.20;99.90;;;;;;4859017;29;20380;-69
2023/03/02 10:34:41;;;;;;;;;;;3.40;99.90;;;;;;4858575;29;20955;-70
2023/03/02 10:37:14;;;;;;;;;;;3.60;99.90;;;;;;4873114;29;20300;-69
2023/03/02 10:39:40;;;;;;;;;;;3.80;99.90;;;;;;4859287;29;20338;-71
2023/03/02 10:42:09;;;;;;;;;;;3.90;99.90;;;;;;4853550;29;19999;-70
2023/03/02 10:44:37;;;;;;;;;;;4.10;99.90;;;;;;4856317;29;20488;-72
2023/03/02 10:47:03;;;;;;;;;;;4.20;99.90;;;;;;4853182;29;20250;-74
2023/03/02 10:49:33;;;;;;;;;;;4.20;99.90;;;;;;4857115;29;19984;-75
2023/03/02 10:51:58;;;;;;;;;;;4.40;99.90;;;;;;4841471;29;20000;-66
2023/03/02 10:54:27;;;;;;;;;;;4.30;99.90;;;;;;4855229;29;19936;-65
2023/03/02 10:56:55;;;;;;;;;;;4.30;99.90;;;;;;4858357;29;19925;-67
2023/03/02 10:59:24;;;;;;;;;;;4.30;99.90;;;;;;4861386;29;19972;-66
2023/03/02 11:02:22;;;;;;;;;;;4.30;99.90;;;;;;4862084;29;20439;-65
2023/03/02 11:04:55;;;;;;;;;;;4.30;99.90;;;;;;4849616;29;19932;-66
2023/03/02 11:07:22;;;;;;;;;;;4.50;99.90;;;;;;4845278;29;19976;-67
2023/03/02 11:10:05;;;;;;;;;;;4.60;99.90;;;;;;4860761;29;19936;-70
2023/03/02 11:12:31;;;;;;;;;;;4.70;99.90;;;;;;4861808;29;20035;-74
2023/03/02 11:15:16;;;;;;;;;;;4.60;99.90;;;;;;4858462;29;19935;-67
2023/03/02 11:17:43;;;;;;;;;;;4.60;99.90;;;;;;4861579;29;19935;-67
2023/03/02 11:20:14;;;;;;;;;;;4.50;99.90;;;;;;4861892;29;19932;-67
2023/03/02 11:22:46;;;;;;;;;;;4.50;99.90;;;;;;4876158;29;19992;-68
2023/03/02 11:25:17;;;;;;;;;;;4.50;99.90;;;;;;4858488;29;20022;-67
2023/03/02 11:27:44;;;;;;;;;;;4.60;99.90;;;;;;4859512;29;19935;-67
2023/03/02 11:30:17;;;;;;;;;;;4.70;99.90;;;;;;4858531;29;20022;-75
2023/03/02 11:33:02;;;;;;;;;;;4.80;99.90;;;;;;4857055;29;19928;-69
2023/03/02 11:35:42;;;;;;;;;;;4.90;99.90;;;;;;4859757;29;19989;-68
2023/03/02 11:38:11;;;;;;;;;;;5.00;99.90;;;;;;4861030;29;19935;-68
2023/03/02 11:40:43;;;;;;;;;;;5.10;99.90;;;;;;4859611;29;19928;-69
2023/03/02 11:43:10;;;;;;;;;;;5.20;99.90;;;;;;4860655;29;20458;-68
2023/03/02 11:45:38;;;;;;;;;;;5.20;99.90;;;;;;4859713;29;19932;-75
2023/03/02 11:48:06;;;;;;;;;;;5.20;99.90;;;;;;4860169;29;20444;-68
2023/03/02 11:50:33;;;;;;;;;;;5.20;99.90;;;;;;4858227;29;20026;-76
2023/03/02 11:53:02;;;;;;;;;;;5.10;99.90;;;;;;4873042;29;19928;-68
2023/03/02 11:55:30;;;;;;;;;;;5.10;99.90;;;;;;4873376;29;19935;-68
2023/03/02 11:58:00;;;;;;;;;;;5.20;99.90;;;;;;4854444;29;19935;-67
2023/03/02 12:00:26;;;;;;;;;;;5.40;99.90;;;;;;4857063;29;19992;-67
2023/03/02 12:03:24;;;;;;;;;;;5.60;99.90;;;;;;4859433;29;19932;-69
2023/03/02 12:05:52;;;;;;;;;;;5.60;99.90;;;;;;4858705;29;19977;-66
2023/03/02 12:08:18;;;;;;;;;;;5.60;99.90;;;;;;4858055;29;20447;-69
2023/03/02 12:10:56;;;;;;;;;;;5.50;99.90;;;;;;4859428;29;19928;-67
2023/03/02 12:13:29;;;;;;;;;;;5.50;99.90;;;;;;4871679;29;20387;-74
2023/03/02 12:15:55;;;;;;;;;;;5.40;99.90;;;;;;4853448;29;20014;-67
2023/03/02 12:18:20;;;;;;;;;;;5.40;99.90;;;;;;4859962;29;19928;-67
2023/03/02 12:20:58;;;;;;;;;;;5.50;99.90;;;;;;4860429;29;20341;-67
2023/03/02 12:23:24;;;;;;;;;;;5.60;99.90;;;;;;4859719;29;20014;-68
2023/03/02 12:26:00;;;;;;;;;;;5.70;99.90;;;;;;4860271;29;20019;-67
2023/03/02 12:28:27;;;;;;;;;;;5.80;99.90;;;;;;4860735;29;20355;-66
2023/03/02 12:31:01;;;;;;;;;;;5.80;99.90;;;;;;4855154;29;19932;-74
2023/03/02 12:33:27;;;;;;;;;;;5.70;99.90;;;;;;4858391;29;20368;-67
2023/03/02 12:36:01;;;;;;;;;;;5.60;99.90;;;;;;4857402;29;19978;-68
2023/03/02 12:38:29;;;;;;;;;;;5.60;99.90;;;;;;4870180;29;19951;-68
2023/03/02 12:41:01;;;;;;;;;;;5.60;99.90;;;;;;4858960;29;20241;-68
2023/03/02 12:43:26;;;;;;;;;;;5.60;99.90;;;;;;4856699;29;19976;-67
2023/03/02 12:46:19;;;;;;;;;;;5.60;99.90;;;;;;4859146;29;19929;-67
2023/03/02 12:48:49;;;;;;;;;;;5.60;99.90;;;;;;4858047;29;20350;-67
2023/03/02 12:51:22;;;;;;;;;;;5.60;99.90;;;;;;4857047;29;19929;-67
2023/03/02 12:53:48;;;;;;;;;;;5.50;99.90;;;;;;4858995;29;19928;-67
2023/03/02 12:56:20;;;;;;;;;;;5.40;99.90;;;;;;4874386;29;19928;-67
2023/03/02 12:58:48;;;;;;;;;;;5.30;99.90;;;;;;4874327;29;20064;-68
2023/03/02 13:01:21;;;;;;;;;;;5.30;99.90;;;;;;4859836;29;20019;-66
2023/03/02 13:03:46;;;;;;;;;;;5.40;99.90;;;;;;4858637;29;19935;-69
2023/03/02 13:06:13;;;;;;;;;;;5.40;99.90;;;;;;4873948;29;20019;-67
2023/03/02 13:08:42;;;;;;;;;;;5.40;99.90;;;;;;4859934;29;19932;-68
2023/03/02 13:11:07;;;;;;;;;;;5.40;99.90;;;;;;4843552;29;20202;-69
2023/03/02 13:13:40;;;;;;;;;;;5.40;99.90;;;;;;4859881;29;20014;-68
2023/03/02 13:16:16;;;;;;;;;;;5.50;99.90;;;;;;4873640;29;19935;-70
2023/03/02 13:18:42;;;;;;;;;;;5.50;99.90;;;;;;4874115;29;19972;-66
2023/03/02 13:21:09;;;;;;;;;;;5.60;99.90;;;;;;4857948;29;19971;-67
2023/03/02 13:23:35;;;;;;;;;;;5.70;99.90;;;;;;4858846;29;19984;-70
2023/03/02 13:26:01;;;;;;;;;;;5.70;99.90;;;;;;4858233;29;19932;-69
2023/03/02 13:28:31;;;;;;;;;;;5.70;99.90;;;;;;4874275;29;19928;-69
2023/03/02 13:30:56;;;;;;;;;;;5.70;99.90;;;;;;4859241;29;20410;-68
2023/03/02 13:33:23;;;;;;;;;;;5.70;99.90;;;;;;4858633;29;20043;-68
2023/03/02 13:35:49;;;;;;;;;;;5.70;99.90;;;;;;4871107;29;19928;-71
2023/03/02 13:38:20;;;;;;;;;;;5.80;99.90;;;;;;4861685;29;19939;-69
2023/03/02 13:40:47;;;;;;;;;;;5.90;99.90;;;;;;4878238;29;19971;-70
2023/03/02 13:43:20;;;;;;;;;;;5.80;99.90;;;;;;4861667;29;19927;-69
2023/03/02 13:45:55;;;;;;;;;;;5.80;99.90;;;;;;4878055;29;19967;-69
2023/03/02 13:48:21;;;;;;;;;;;5.70;99.90;;;;;;4861770;29;19949;-68
2023/03/02 13:50:51;;;;;;;;;;;5.80;99.90;;;;;;4861678;29;19928;-68
2023/03/02 13:53:17;;;;;;;;;;;5.80;99.90;;;;;;4861937;29;19928;-68
2023/03/02 13:55:42;;;;;;;;;;;5.90;99.90;;;;;;4861688;29;19934;-69
2023/03/02 13:58:12;;;;;;;;;;;5.90;99.90;;;;;;4845777;29;20011;-69
2023/03/02 14:00:38;;;;;;;;;;;5.90;99.90;;;;;;4846292;29;19931;-74
2023/03/02 14:03:09;;;;;;;;;;;6.00;99.90;;;;;;4862131;29;19928;-71
2023/03/02 14:05:34;;;;;;;;;;;6.00;99.90;;;;;;4850346;29;19934;-69
2023/03/02 14:08:01;;;;;;;;;;;6.00;99.90;;;;;;4849495;29;20018;-70
2023/03/02 14:10:27;;;;;;;;;;;6.00;99.90;;;;;;4849865;29;19991;-69
2023/03/02 14:13:06;;;;;;;;;;;6.00;99.90;;;;;;4865205;29;19928;-74
2023/03/02 14:15:32;;;;;;;;;;;6.10;99.90;;;;;;4881952;29;19979;-66
2023/03/02 14:17:58;;;;;;;;;;;6.10;99.90;;;;;;4864425;29;19939;-67
2023/03/02 14:20:24;;;;;;;;;;;6.10;99.90;;;;;;4864819;29;20304;-67
2023/03/02 14:22:50;;;;;;;;;;;6.10;99.90;;;;;;4881476;29;19927;-67
2023/03/02 14:25:15;;;;;;;;;;;6.10;99.90;;;;;;4880024;29;19934;-67
2023/03/02 14:27:41;;;;;;;;;;;6.20;99.90;;;;;;4849752;29;19984;-68
2023/03/02 14:30:12;;;;;;;;;;;6.20;99.90;;;;;;4864778;29;19927;-67
2023/03/02 14:32:38;;;;;;;;;;;6.20;99.90;;;;;;4881580;29;19939;-68